sensor_id;sensor_type;location;lat;lon;timestamp;P1;durP1;ratioP1;P2;durP2;ratioP2
70985;SDS011;58645;43.068;25.610;2023-06-26T00:00:18;0.10;;;0.03;;
70985;SDS011;58645;43.068;25.610;2023-06-26T00:02:45;0.17;;;0.13;;
70985;SDS011;58645;43.068;25.610;2023-06-26T00:05:10;0.00;;;0.00;;
70985;SDS011;58645;43.068;25.610;2023-06-26T00:07:36;0.00;;;0.00;;
70985;SDS011;58645;43.068;25.610;2023-06-26T00:10:02;0.08;;;0.08;;
70985;SDS011;58645;43.068;25.610;2023-06-26T00:12:29;0.20;;;0.20;;
70985;SDS011;58645;43.068;25.610;2023-06-26T00:14:55;0.00;;;0.00;;
70985;SDS011;58645;43.068;25.610;2023-06-26T00:17:21;0.00;;;0.00;;
70985;SDS011;58645;43.068;25.610;2023-06-26T00:19:47;0.00;;;0.00;;
70985;SDS011;58645;43.068;25.610;2023-06-26T00:22:14;0.35;;;0.15;;
70985;SDS011;58645;43.068;25.610;2023-06-26T00:24:39;0.00;;;0.00;;
70985;SDS011;58645;43.068;25.610;2023-06-26T00:27:05;0.17;;;0.17;;
70985;SDS011;58645;43.068;25.610;2023-06-26T00:29:31;0.90;;;0.40;;
70985;SDS011;58645;43.068;25.610;2023-06-26T00:31:57;0.10;;;0.10;;
70985;SDS011;58645;43.068;25.610;2023-06-26T00:34:23;0.28;;;0.10;;
70985;SDS011;58645;43.068;25.610;2023-06-26T00:36:49;0.10;;;0.10;;
70985;SDS011;58645;43.068;25.610;2023-06-26T00:39:14;0.00;;;0.00;;
70985;SDS011;58645;43.068;25.610;2023-06-26T00:41:40;0.00;;;0.00;;
70985;SDS011;58645;43.068;25.610;2023-06-26T00:44:06;0.13;;;0.13;;
70985;SDS011;58645;43.068;25.610;2023-06-26T00:46:32;0.10;;;0.10;;
70985;SDS011;58645;43.068;25.610;2023-06-26T00:48:59;0.00;;;0.00;;
70985;SDS011;58645;43.068;25.610;2023-06-26T00:51:30;0.10;;;0.10;;
70985;SDS011;58645;43.068;25.610;2023-06-26T00:53:57;0.10;;;0.10;;
70985;SDS011;58645;43.068;25.610;2023-06-26T00:56:23;0.82;;;0.15;;
70985;SDS011;58645;43.068;25.610;2023-06-26T00:58:49;0.30;;;0.20;;
70985;SDS011;58645;43.068;25.610;2023-06-26T01:01:15;0.00;;;0.00;;
70985;SDS011;58645;43.068;25.610;2023-06-26T01:03:45;0.25;;;0.10;;
70985;SDS011;58645;43.068;25.610;2023-06-26T01:06:16;0.00;;;0.00;;
70985;SDS011;58645;43.068;25.610;2023-06-26T01:08:44;0.00;;;0.00;;
70985;SDS011;58645;43.068;25.610;2023-06-26T01:11:11;0.17;;;0.15;;
70985;SDS011;58645;43.068;25.610;2023-06-26T01:13:38;0.52;;;0.13;;
70985;SDS011;58645;43.068;25.610;2023-06-26T01:16:06;0.10;;;0.10;;
70985;SDS011;58645;43.068;25.610;2023-06-26T01:18:32;0.13;;;0.10;;
70985;SDS011;58645;43.068;25.610;2023-06-26T01:20:59;0.82;;;0.22;;
70985;SDS011;58645;43.068;25.610;2023-06-26T01:28:37;0.00;;;0.00;;
70985;SDS011;58645;43.068;25.610;2023-06-26T01:31:06;0.63;;;0.20;;
70985;SDS011;58645;43.068;25.610;2023-06-26T01:33:33;0.10;;;0.05;;
70985;SDS011;58645;43.068;25.610;2023-06-26T01:36:00;0.20;;;0.10;;
70985;SDS011;58645;43.068;25.610;2023-06-26T01:40:51;1.13;;;0.20;;
70985;SDS011;58645;43.068;25.610;2023-06-26T01:45:54;0.13;;;0.00;;
70985;SDS011;58645;43.068;25.610;2023-06-26T01:48:26;0.15;;;0.10;;
70985;SDS011;58645;43.068;25.610;2023-06-26T01:50:58;0.40;;;0.10;;
70985;SDS011;58645;43.068;25.610;2023-06-26T01:53:25;0.10;;;0.10;;
70985;SDS011;58645;43.068;25.610;2023-06-26T01:56:00;0.10;;;0.10;;
70985;SDS011;58645;43.068;25.610;2023-06-26T01:58:33;0.00;;;0.00;;
70985;SDS011;58645;43.068;25.610;2023-06-26T02:01:00;0.10;;;0.10;;
70985;SDS011;58645;43.068;25.610;2023-06-26T02:03:26;0.10;;;0.10;;
70985;SDS011;58645;43.068;25.610;2023-06-26T02:05:52;0.20;;;0.10;;
70985;SDS011;58645;43.068;25.610;2023-06-26T02:08:18;0.40;;;0.20;;
70985;SDS011;58645;43.068;25.610;2023-06-26T02:10:44;0.20;;;0.00;;
70985;SDS011;58645;43.068;25.610;2023-06-26T02:13:09;0.10;;;0.10;;
70985;SDS011;58645;43.068;25.610;2023-06-26T02:15:35;0.20;;;0.10;;
70985;SDS011;58645;43.068;25.610;2023-06-26T02:18:01;0.00;;;0.00;;
70985;SDS011;58645;43.068;25.610;2023-06-26T02:20:27;0.10;;;0.10;;
70985;SDS011;58645;43.068;25.610;2023-06-26T02:22:52;0.15;;;0.10;;
70985;SDS011;58645;43.068;25.610;2023-06-26T02:25:18;0.20;;;0.10;;
70985;SDS011;58645;43.068;25.610;2023-06-26T02:27:44;0.03;;;0.03;;
70985;SDS011;58645;43.068;25.610;2023-06-26T02:30:10;0.22;;;0.20;;
70985;SDS011;58645;43.068;25.610;2023-06-26T02:32:36;0.20;;;0.20;;
70985;SDS011;58645;43.068;25.610;2023-06-26T02:35:01;0.00;;;0.00;;
70985;SDS011;58645;43.068;25.610;2023-06-26T02:37:27;0.13;;;0.13;;
70985;SDS011;58645;43.068;25.610;2023-06-26T02:39:53;0.20;;;0.20;;
70985;SDS011;58645;43.068;25.610;2023-06-26T02:42:19;0.32;;;0.32;;
70985;SDS011;58645;43.068;25.610;2023-06-26T02:44:44;0.30;;;0.20;;
70985;SDS011;58645;43.068;25.610;2023-06-26T02:47:10;0.10;;;0.10;;
70985;SDS011;58645;43.068;25.610;2023-06-26T02:49:36;0.10;;;0.05;;
70985;SDS011;58645;43.068;25.610;2023-06-26T02:52:01;0.20;;;0.20;;
70985;SDS011;58645;43.068;25.610;2023-06-26T02:54:27;0.03;;;0.03;;
70985;SDS011;58645;43.068;25.610;2023-06-26T02:56:53;0.10;;;0.10;;
70985;SDS011;58645;43.068;25.610;2023-06-26T02:59:19;0.10;;;0.10;;
70985;SDS011;58645;43.068;25.610;2023-06-26T03:01:45;0.30;;;0.20;;
70985;SDS011;58645;43.068;25.610;2023-06-26T03:04:10;0.20;;;0.20;;
70985;SDS011;58645;43.068;25.610;2023-06-26T03:06:36;0.70;;;0.30;;
70985;SDS011;58645;43.068;25.610;2023-06-26T03:09:02;0.17;;;0.17;;
70985;SDS011;58645;43.068;25.610;2023-06-26T03:11:28;0.15;;;0.15;;
70985;SDS011;58645;43.068;25.610;2023-06-26T03:13:55;0.20;;;0.20;;
70985;SDS011;58645;43.068;25.610;2023-06-26T03:16:21;0.05;;;0.05;;
70985;SDS011;58645;43.068;25.610;2023-06-26T03:18:46;0.20;;;0.15;;
70985;SDS011;58645;43.068;25.610;2023-06-26T03:21:12;0.10;;;0.10;;
70985;SDS011;58645;43.068;25.610;2023-06-26T03:23:38;0.50;;;0.30;;
70985;SDS011;58645;43.068;25.610;2023-06-26T03:26:04;0.20;;;0.20;;
70985;SDS011;58645;43.068;25.610;2023-06-26T03:28:29;0.57;;;0.38;;
70985;SDS011;58645;43.068;25.610;2023-06-26T03:30:56;0.20;;;0.10;;
70985;SDS011;58645;43.068;25.610;2023-06-26T03:33:22;0.35;;;0.22;;
70985;SDS011;58645;43.068;25.610;2023-06-26T03:35:47;0.00;;;0.00;;
70985;SDS011;58645;43.068;25.610;2023-06-26T03:38:13;0.52;;;0.25;;
70985;SDS011;58645;43.068;25.610;2023-06-26T03:40:39;0.30;;;0.30;;
70985;SDS011;58645;43.068;25.610;2023-06-26T03:43:05;0.35;;;0.28;;
70985;SDS011;58645;43.068;25.610;2023-06-26T03:45:31;0.57;;;0.35;;
70985;SDS011;58645;43.068;25.610;2023-06-26T03:47:57;0.28;;;0.28;;
70985;SDS011;58645;43.068;25.610;2023-06-26T03:50:23;0.20;;;0.20;;
70985;SDS011;58645;43.068;25.610;2023-06-26T03:52:49;0.45;;;0.17;;
70985;SDS011;58645;43.068;25.610;2023-06-26T03:55:17;0.32;;;0.20;;
70985;SDS011;58645;43.068;25.610;2023-06-26T03:57:43;1.15;;;0.47;;
70985;SDS011;58645;43.068;25.610;2023-06-26T04:00:09;0.25;;;0.25;;
70985;SDS011;58645;43.068;25.610;2023-06-26T04:02:37;0.57;;;0.20;;
70985;SDS011;58645;43.068;25.610;2023-06-26T04:05:04;0.40;;;0.10;;
70985;SDS011;58645;43.068;25.610;2023-06-26T04:07:30;0.00;;;0.00;;
70985;SDS011;58645;43.068;25.610;2023-06-26T04:12:22;0.20;;;0.20;;
70985;SDS011;58645;43.068;25.610;2023-06-26T04:14:48;0.35;;;0.30;;
70985;SDS011;58645;43.068;25.610;2023-06-26T04:17:14;0.40;;;0.30;;
70985;SDS011;58645;43.068;25.610;2023-06-26T04:19:40;1.00;;;0.52;;
70985;SDS011;58645;43.068;25.610;2023-06-26T04:22:06;0.60;;;0.30;;
70985;SDS011;58645;43.068;25.610;2023-06-26T04:24:31;0.10;;;0.10;;
70985;SDS011;58645;43.068;25.610;2023-06-26T04:26:57;1.98;;;0.38;;
70985;SDS011;58645;43.068;25.610;2023-06-26T04:29:23;0.32;;;0.30;;
70985;SDS011;58645;43.068;25.610;2023-06-26T04:31:52;0.60;;;0.50;;
70985;SDS011;58645;43.068;25.610;2023-06-26T04:34:22;0.38;;;0.30;;
70985;SDS011;58645;43.068;25.610;2023-06-26T04:36:51;0.40;;;0.32;;
70985;SDS011;58645;43.068;25.610;2023-06-26T04:39:17;0.32;;;0.32;;
70985;SDS011;58645;43.068;25.610;2023-06-26T04:41:46;1.65;;;0.52;;
70985;SDS011;58645;43.068;25.610;2023-06-26T04:44:12;0.95;;;0.50;;
70985;SDS011;58645;43.068;25.610;2023-06-26T04:46:38;1.05;;;0.63;;
70985;SDS011;58645;43.068;25.610;2023-06-26T04:49:10;0.43;;;0.25;;
70985;SDS011;58645;43.068;25.610;2023-06-26T04:51:36;1.30;;;0.60;;
70985;SDS011;58645;43.068;25.610;2023-06-26T04:54:08;1.17;;;0.50;;
70985;SDS011;58645;43.068;25.610;2023-06-26T04:56:37;0.50;;;0.40;;
70985;SDS011;58645;43.068;25.610;2023-06-26T04:59:05;0.45;;;0.30;;
70985;SDS011;58645;43.068;25.610;2023-06-26T05:01:34;1.90;;;0.85;;
70985;SDS011;58645;43.068;25.610;2023-06-26T05:03:59;0.55;;;0.47;;
70985;SDS011;58645;43.068;25.610;2023-06-26T05:06:25;0.85;;;0.45;;
70985;SDS011;58645;43.068;25.610;2023-06-26T05:08:51;1.55;;;0.82;;
70985;SDS011;58645;43.068;25.610;2023-06-26T05:11:17;1.25;;;0.70;;
70985;SDS011;58645;43.068;25.610;2023-06-26T05:13:43;1.40;;;1.08;;
70985;SDS011;58645;43.068;25.610;2023-06-26T05:16:09;0.38;;;0.38;;
70985;SDS011;58645;43.068;25.610;2023-06-26T05:18:35;1.33;;;0.90;;
70985;SDS011;58645;43.068;25.610;2023-06-26T05:21:02;0.47;;;0.43;;
70985;SDS011;58645;43.068;25.610;2023-06-26T05:23:30;0.88;;;0.50;;
70985;SDS011;58645;43.068;25.610;2023-06-26T05:26:00;0.40;;;0.40;;
70985;SDS011;58645;43.068;25.610;2023-06-26T05:28:29;1.70;;;0.75;;
70985;SDS011;58645;43.068;25.610;2023-06-26T05:31:01;2.13;;;1.00;;
70985;SDS011;58645;43.068;25.610;2023-06-26T05:33:28;0.80;;;0.68;;
70985;SDS011;58645;43.068;25.610;2023-06-26T05:35:59;0.95;;;0.60;;
70985;SDS011;58645;43.068;25.610;2023-06-26T05:38:27;1.02;;;0.68;;
70985;SDS011;58645;43.068;25.610;2023-06-26T05:40:53;0.47;;;0.47;;
70985;SDS011;58645;43.068;25.610;2023-06-26T05:43:20;0.98;;;0.38;;
70985;SDS011;58645;43.068;25.610;2023-06-26T05:45:50;1.13;;;0.50;;
70985;SDS011;58645;43.068;25.610;2023-06-26T05:48:34;1.10;;;0.75;;
70985;SDS011;58645;43.068;25.610;2023-06-26T05:51:01;0.90;;;0.55;;
70985;SDS011;58645;43.068;25.610;2023-06-26T05:53:27;1.65;;;0.65;;
70985;SDS011;58645;43.068;25.610;2023-06-26T05:55:55;0.32;;;0.30;;
70985;SDS011;58645;43.068;25.610;2023-06-26T05:58:21;0.75;;;0.40;;
70985;SDS011;58645;43.068;25.610;2023-06-26T06:00:57;0.40;;;0.30;;
70985;SDS011;58645;43.068;25.610;2023-06-26T06:03:26;1.08;;;0.50;;
70985;SDS011;58645;43.068;25.610;2023-06-26T06:05:55;0.60;;;0.50;;
70985;SDS011;58645;43.068;25.610;2023-06-26T06:08:22;1.15;;;0.60;;
70985;SDS011;58645;43.068;25.610;2023-06-26T06:10:47;0.82;;;0.40;;
70985;SDS011;58645;43.068;25.610;2023-06-26T06:13:18;0.95;;;0.63;;
70985;SDS011;58645;43.068;25.610;2023-06-26T06:15:44;0.30;;;0.30;;
70985;SDS011;58645;43.068;25.610;2023-06-26T06:18:10;0.35;;;0.30;;
70985;SDS011;58645;43.068;25.610;2023-06-26T06:20:36;0.55;;;0.50;;
70985;SDS011;58645;43.068;25.610;2023-06-26T06:23:02;0.60;;;0.40;;
70985;SDS011;58645;43.068;25.610;2023-06-26T06:25:28;1.75;;;0.93;;
70985;SDS011;58645;43.068;25.610;2023-06-26T06:27:54;0.40;;;0.30;;
70985;SDS011;58645;43.068;25.610;2023-06-26T06:30:20;0.95;;;0.43;;
70985;SDS011;58645;43.068;25.610;2023-06-26T06:32:46;1.52;;;0.77;;
70985;SDS011;58645;43.068;25.610;2023-06-26T06:35:15;0.60;;;0.50;;
70985;SDS011;58645;43.068;25.610;2023-06-26T06:37:42;0.35;;;0.30;;
70985;SDS011;58645;43.068;25.610;2023-06-26T06:42:40;0.40;;;0.32;;
70985;SDS011;58645;43.068;25.610;2023-06-26T06:45:06;0.88;;;0.47;;
70985;SDS011;58645;43.068;25.610;2023-06-26T06:47:33;0.88;;;0.60;;
70985;SDS011;58645;43.068;25.610;2023-06-26T06:49:59;1.27;;;0.73;;
70985;SDS011;58645;43.068;25.610;2023-06-26T06:52:39;1.48;;;0.65;;
70985;SDS011;58645;43.068;25.610;2023-06-26T06:55:06;2.30;;;0.98;;
70985;SDS011;58645;43.068;25.610;2023-06-26T06:57:37;1.13;;;0.50;;
70985;SDS011;58645;43.068;25.610;2023-06-26T07:00:05;0.98;;;0.82;;
70985;SDS011;58645;43.068;25.610;2023-06-26T07:02:36;0.82;;;0.40;;
70985;SDS011;58645;43.068;25.610;2023-06-26T07:05:07;1.00;;;0.85;;
70985;SDS011;58645;43.068;25.610;2023-06-26T07:07:36;1.42;;;0.63;;
70985;SDS011;58645;43.068;25.610;2023-06-26T07:12:31;1.10;;;0.98;;
70985;SDS011;58645;43.068;25.610;2023-06-26T07:14:57;0.75;;;0.47;;
70985;SDS011;58645;43.068;25.610;2023-06-26T07:19:59;0.30;;;0.28;;
70985;SDS011;58645;43.068;25.610;2023-06-26T07:22:29;0.47;;;0.28;;
70985;SDS011;58645;43.068;25.610;2023-06-26T07:24:57;0.75;;;0.50;;
70985;SDS011;58645;43.068;25.610;2023-06-26T07:27:27;0.30;;;0.30;;
70985;SDS011;58645;43.068;25.610;2023-06-26T07:29:57;1.10;;;0.40;;
70985;SDS011;58645;43.068;25.610;2023-06-26T07:34:51;1.08;;;0.57;;
70985;SDS011;58645;43.068;25.610;2023-06-26T07:37:18;0.70;;;0.70;;
70985;SDS011;58645;43.068;25.610;2023-06-26T07:42:09;1.02;;;0.50;;
70985;SDS011;58645;43.068;25.610;2023-06-26T07:44:35;0.38;;;0.38;;
70985;SDS011;58645;43.068;25.610;2023-06-26T07:47:01;0.15;;;0.13;;
70985;SDS011;58645;43.068;25.610;2023-06-26T07:49:27;0.57;;;0.43;;
70985;SDS011;58645;43.068;25.610;2023-06-26T07:51:54;0.93;;;0.10;;
70985;SDS011;58645;43.068;25.610;2023-06-26T07:54:23;0.13;;;0.13;;
70985;SDS011;58645;43.068;25.610;2023-06-26T07:59:19;0.60;;;0.30;;
70985;SDS011;58645;43.068;25.610;2023-06-26T08:01:47;0.45;;;0.45;;
70985;SDS011;58645;43.068;25.610;2023-06-26T08:04:14;1.20;;;0.75;;
70985;SDS011;58645;43.068;25.610;2023-06-26T08:09:08;0.47;;;0.40;;
70985;SDS011;58645;43.068;25.610;2023-06-26T08:11:34;0.10;;;0.10;;
70985;SDS011;58645;43.068;25.610;2023-06-26T08:16:28;0.77;;;0.35;;
70985;SDS011;58645;43.068;25.610;2023-06-26T08:21:19;0.55;;;0.40;;
70985;SDS011;58645;43.068;25.610;2023-06-26T08:23:48;0.65;;;0.35;;
70985;SDS011;58645;43.068;25.610;2023-06-26T08:28:42;0.57;;;0.50;;
70985;SDS011;58645;43.068;25.610;2023-06-26T08:31:12;1.15;;;0.52;;
70985;SDS011;58645;43.068;25.610;2023-06-26T08:33:37;1.20;;;0.45;;
70985;SDS011;58645;43.068;25.610;2023-06-26T08:38:32;0.35;;;0.35;;
70985;SDS011;58645;43.068;25.610;2023-06-26T08:40:58;1.65;;;0.88;;
70985;SDS011;58645;43.068;25.610;2023-06-26T08:43:25;0.80;;;0.43;;
70985;SDS011;58645;43.068;25.610;2023-06-26T08:45:52;1.02;;;0.43;;
70985;SDS011;58645;43.068;25.610;2023-06-26T08:48:18;0.52;;;0.20;;
70985;SDS011;58645;43.068;25.610;2023-06-26T08:50:47;0.63;;;0.40;;
70985;SDS011;58645;43.068;25.610;2023-06-26T08:55:59;0.50;;;0.28;;
70985;SDS011;58645;43.068;25.610;2023-06-26T08:58:26;1.58;;;0.77;;
70985;SDS011;58645;43.068;25.610;2023-06-26T09:00:54;0.82;;;0.52;;
70985;SDS011;58645;43.068;25.610;2023-06-26T09:03:24;1.23;;;0.57;;
70985;SDS011;58645;43.068;25.610;2023-06-26T09:05:51;0.90;;;0.40;;
70985;SDS011;58645;43.068;25.610;2023-06-26T09:08:21;0.75;;;0.63;;
70985;SDS011;58645;43.068;25.610;2023-06-26T09:10:54;0.65;;;0.60;;
70985;SDS011;58645;43.068;25.610;2023-06-26T09:13:30;1.05;;;0.63;;
70985;SDS011;58645;43.068;25.610;2023-06-26T09:15:56;0.95;;;0.60;;
70985;SDS011;58645;43.068;25.610;2023-06-26T09:18:22;0.43;;;0.20;;
70985;SDS011;58645;43.068;25.610;2023-06-26T09:20:49;0.65;;;0.32;;
70985;SDS011;58645;43.068;25.610;2023-06-26T09:23:15;0.90;;;0.70;;
70985;SDS011;58645;43.068;25.610;2023-06-26T09:25:42;3.83;;;0.85;;
70985;SDS011;58645;43.068;25.610;2023-06-26T09:28:09;0.60;;;0.35;;
70985;SDS011;58645;43.068;25.610;2023-06-26T09:30:35;1.13;;;0.52;;
70985;SDS011;58645;43.068;25.610;2023-06-26T09:33:14;0.68;;;0.40;;
70985;SDS011;58645;43.068;25.610;2023-06-26T09:35:41;0.70;;;0.68;;
70985;SDS011;58645;43.068;25.610;2023-06-26T09:38:07;0.47;;;0.47;;
70985;SDS011;58645;43.068;25.610;2023-06-26T09:40:33;1.38;;;0.68;;
70985;SDS011;58645;43.068;25.610;2023-06-26T09:43:07;0.90;;;0.82;;
70985;SDS011;58645;43.068;25.610;2023-06-26T09:45:39;1.42;;;0.70;;
70985;SDS011;58645;43.068;25.610;2023-06-26T09:48:08;0.75;;;0.40;;
70985;SDS011;58645;43.068;25.610;2023-06-26T09:50:34;0.82;;;0.80;;
70985;SDS011;58645;43.068;25.610;2023-06-26T09:53:08;0.68;;;0.30;;
70985;SDS011;58645;43.068;25.610;2023-06-26T09:55:38;0.90;;;0.63;;
70985;SDS011;58645;43.068;25.610;2023-06-26T09:58:08;0.63;;;0.52;;
70985;SDS011;58645;43.068;25.610;2023-06-26T10:00:40;0.80;;;0.40;;
70985;SDS011;58645;43.068;25.610;2023-06-26T10:03:07;0.98;;;0.70;;
70985;SDS011;58645;43.068;25.610;2023-06-26T10:05:33;1.10;;;0.50;;
70985;SDS011;58645;43.068;25.610;2023-06-26T10:10:25;5.18;;;2.85;;
70985;SDS011;58645;43.068;25.610;2023-06-26T10:17:50;6.40;;;4.35;;
70985;SDS011;58645;43.068;25.610;2023-06-26T10:20:19;6.72;;;4.28;;
70985;SDS011;58645;43.068;25.610;2023-06-26T10:22:46;8.20;;;4.78;;
70985;SDS011;58645;43.068;25.610;2023-06-26T10:25:21;6.43;;;4.63;;
70985;SDS011;58645;43.068;25.610;2023-06-26T10:27:58;6.03;;;4.28;;
70985;SDS011;58645;43.068;25.610;2023-06-26T10:30:31;5.78;;;4.10;;
70985;SDS011;58645;43.068;25.610;2023-06-26T10:33:00;5.95;;;4.25;;
70985;SDS011;58645;43.068;25.610;2023-06-26T10:35:28;6.03;;;4.22;;
70985;SDS011;58645;43.068;25.610;2023-06-26T10:38:02;8.48;;;4.47;;
70985;SDS011;58645;43.068;25.610;2023-06-26T10:40:41;9.45;;;4.20;;
70985;SDS011;58645;43.068;25.610;2023-06-26T10:43:10;7.55;;;4.28;;
70985;SDS011;58645;43.068;25.610;2023-06-26T10:45:43;6.53;;;4.03;;
70985;SDS011;58645;43.068;25.610;2023-06-26T10:48:17;6.68;;;4.55;;
70985;SDS011;58645;43.068;25.610;2023-06-26T10:50:43;8.32;;;4.50;;
70985;SDS011;58645;43.068;25.610;2023-06-26T10:53:14;7.47;;;4.55;;
70985;SDS011;58645;43.068;25.610;2023-06-26T10:55:48;7.88;;;4.28;;
70985;SDS011;58645;43.068;25.610;2023-06-26T10:58:28;6.47;;;4.50;;
70985;SDS011;58645;43.068;25.610;2023-06-26T11:01:19;8.10;;;4.30;;
70985;SDS011;58645;43.068;25.610;2023-06-26T11:03:47;5.75;;;3.97;;
70985;SDS011;58645;43.068;25.610;2023-06-26T11:06:17;6.38;;;3.70;;
70985;SDS011;58645;43.068;25.610;2023-06-26T11:08:48;8.40;;;3.75;;
70985;SDS011;58645;43.068;25.610;2023-06-26T11:11:18;5.68;;;3.95;;
70985;SDS011;58645;43.068;25.610;2023-06-26T11:13:46;4.75;;;3.67;;
70985;SDS011;58645;43.068;25.610;2023-06-26T11:16:12;7.03;;;4.00;;
70985;SDS011;58645;43.068;25.610;2023-06-26T11:18:39;7.30;;;4.15;;
70985;SDS011;58645;43.068;25.610;2023-06-26T11:21:10;8.75;;;3.90;;
70985;SDS011;58645;43.068;25.610;2023-06-26T11:23:39;8.38;;;3.33;;
70985;SDS011;58645;43.068;25.610;2023-06-26T11:26:12;7.35;;;3.90;;
70985;SDS011;58645;43.068;25.610;2023-06-26T11:28:40;7.10;;;3.97;;
70985;SDS011;58645;43.068;25.610;2023-06-26T11:31:29;6.10;;;3.45;;
70985;SDS011;58645;43.068;25.610;2023-06-26T11:33:58;5.85;;;4.15;;
70985;SDS011;58645;43.068;25.610;2023-06-26T11:36:28;7.00;;;3.60;;
70985;SDS011;58645;43.068;25.610;2023-06-26T11:39:01;7.00;;;3.33;;
70985;SDS011;58645;43.068;25.610;2023-06-26T11:41:33;5.70;;;3.80;;
70985;SDS011;58645;43.068;25.610;2023-06-26T11:44:04;4.80;;;3.33;;
70985;SDS011;58645;43.068;25.610;2023-06-26T11:46:31;5.85;;;3.30;;
70985;SDS011;58645;43.068;25.610;2023-06-26T11:48:59;4.05;;;2.80;;
70985;SDS011;58645;43.068;25.610;2023-06-26T11:51:26;4.72;;;3.17;;
70985;SDS011;58645;43.068;25.610;2023-06-26T11:53:53;7.28;;;3.10;;
70985;SDS011;58645;43.068;25.610;2023-06-26T11:56:19;5.25;;;3.20;;
70985;SDS011;58645;43.068;25.610;2023-06-26T12:01:26;6.35;;;3.33;;
70985;SDS011;58645;43.068;25.610;2023-06-26T12:04:00;5.70;;;3.28;;
70985;SDS011;58645;43.068;25.610;2023-06-26T12:06:31;5.90;;;3.67;;
70985;SDS011;58645;43.068;25.610;2023-06-26T12:08:59;3.97;;;3.40;;
70985;SDS011;58645;43.068;25.610;2023-06-26T12:11:28;4.60;;;2.97;;
70985;SDS011;58645;43.068;25.610;2023-06-26T12:13:55;5.97;;;3.10;;
70985;SDS011;58645;43.068;25.610;2023-06-26T12:16:21;8.50;;;3.17;;
70985;SDS011;58645;43.068;25.610;2023-06-26T12:18:47;5.85;;;2.88;;
70985;SDS011;58645;43.068;25.610;2023-06-26T12:24:08;6.60;;;3.28;;
70985;SDS011;58645;43.068;25.610;2023-06-26T12:26:35;6.13;;;2.75;;
70985;SDS011;58645;43.068;25.610;2023-06-26T12:29:05;5.88;;;3.08;;
70985;SDS011;58645;43.068;25.610;2023-06-26T12:31:32;5.18;;;2.95;;
70985;SDS011;58645;43.068;25.610;2023-06-26T12:33:59;5.28;;;2.40;;
70985;SDS011;58645;43.068;25.610;2023-06-26T12:36:26;4.68;;;2.92;;
70985;SDS011;58645;43.068;25.610;2023-06-26T12:38:53;3.83;;;3.00;;
70985;SDS011;58645;43.068;25.610;2023-06-26T12:41:19;5.50;;;2.95;;
70985;SDS011;58645;43.068;25.610;2023-06-26T12:43:49;7.15;;;3.00;;
70985;SDS011;58645;43.068;25.610;2023-06-26T12:46:15;5.28;;;2.85;;
70985;SDS011;58645;43.068;25.610;2023-06-26T12:48:42;4.75;;;2.80;;
70985;SDS011;58645;43.068;25.610;2023-06-26T12:51:11;4.47;;;2.95;;
70985;SDS011;58645;43.068;25.610;2023-06-26T12:53:37;6.25;;;3.45;;
70985;SDS011;58645;43.068;25.610;2023-06-26T12:56:10;9.55;;;3.90;;
70985;SDS011;58645;43.068;25.610;2023-06-26T12:58:36;6.68;;;3.10;;
70985;SDS011;58645;43.068;25.610;2023-06-26T13:01:03;8.50;;;3.63;;
70985;SDS011;58645;43.068;25.610;2023-06-26T13:03:30;5.28;;;3.30;;
70985;SDS011;58645;43.068;25.610;2023-06-26T13:05:56;6.60;;;3.28;;
70985;SDS011;58645;43.068;25.610;2023-06-26T13:08:23;7.45;;;3.10;;
70985;SDS011;58645;43.068;25.610;2023-06-26T13:10:52;5.72;;;3.17;;
70985;SDS011;58645;43.068;25.610;2023-06-26T13:15:44;6.03;;;3.10;;
70985;SDS011;58645;43.068;25.610;2023-06-26T13:20:35;6.05;;;2.72;;
70985;SDS011;58645;43.068;25.610;2023-06-26T13:23:01;7.90;;;3.55;;
70985;SDS011;58645;43.068;25.610;2023-06-26T13:25:27;7.13;;;3.20;;
70985;SDS011;58645;43.068;25.610;2023-06-26T13:27:52;10.35;;;3.47;;
70985;SDS011;58645;43.068;25.610;2023-06-26T13:32:44;6.50;;;3.28;;
70985;SDS011;58645;43.068;25.610;2023-06-26T13:35:11;5.32;;;3.58;;
70985;SDS011;58645;43.068;25.610;2023-06-26T13:37:36;6.60;;;3.33;;
70985;SDS011;58645;43.068;25.610;2023-06-26T13:40:02;3.55;;;2.75;;
70985;SDS011;58645;43.068;25.610;2023-06-26T13:42:29;5.05;;;3.15;;
70985;SDS011;58645;43.068;25.610;2023-06-26T13:47:20;4.47;;;2.88;;
70985;SDS011;58645;43.068;25.610;2023-06-26T13:49:46;5.90;;;2.78;;
70985;SDS011;58645;43.068;25.610;2023-06-26T13:52:13;4.95;;;2.33;;
70985;SDS011;58645;43.068;25.610;2023-06-26T13:54:38;3.55;;;2.30;;
70985;SDS011;58645;43.068;25.610;2023-06-26T13:57:08;4.60;;;2.55;;
70985;SDS011;58645;43.068;25.610;2023-06-26T13:59:36;4.22;;;2.80;;
70985;SDS011;58645;43.068;25.610;2023-06-26T14:02:03;6.82;;;3.42;;
70985;SDS011;58645;43.068;25.610;2023-06-26T14:04:30;10.60;;;5.25;;
70985;SDS011;58645;43.068;25.610;2023-06-26T14:06:56;16.38;;;8.88;;
70985;SDS011;58645;43.068;25.610;2023-06-26T14:09:22;19.73;;;11.85;;
70985;SDS011;58645;43.068;25.610;2023-06-26T14:11:47;19.10;;;9.25;;
70985;SDS011;58645;43.068;25.610;2023-06-26T14:14:13;12.60;;;7.75;;
70985;SDS011;58645;43.068;25.610;2023-06-26T14:16:39;8.07;;;4.55;;
70985;SDS011;58645;43.068;25.610;2023-06-26T14:19:05;8.27;;;5.60;;
70985;SDS011;58645;43.068;25.610;2023-06-26T14:21:31;5.25;;;3.95;;
70985;SDS011;58645;43.068;25.610;2023-06-26T14:23:58;5.65;;;3.20;;
70985;SDS011;58645;43.068;25.610;2023-06-26T14:26:24;5.85;;;4.32;;
70985;SDS011;58645;43.068;25.610;2023-06-26T14:28:50;11.55;;;8.18;;
70985;SDS011;58645;43.068;25.610;2023-06-26T14:31:16;9.35;;;4.72;;
70985;SDS011;58645;43.068;25.610;2023-06-26T14:36:08;3.72;;;2.40;;
70985;SDS011;58645;43.068;25.610;2023-06-26T14:38:33;5.43;;;2.45;;
70985;SDS011;58645;43.068;25.610;2023-06-26T14:40:59;5.50;;;2.40;;
70985;SDS011;58645;43.068;25.610;2023-06-26T14:43:25;7.15;;;3.33;;
70985;SDS011;58645;43.068;25.610;2023-06-26T14:45:51;4.03;;;3.05;;
70985;SDS011;58645;43.068;25.610;2023-06-26T14:48:16;5.57;;;2.97;;
70985;SDS011;58645;43.068;25.610;2023-06-26T14:50:44;5.38;;;3.08;;
70985;SDS011;58645;43.068;25.610;2023-06-26T14:53:10;8.05;;;2.92;;
70985;SDS011;58645;43.068;25.610;2023-06-26T14:55:35;4.35;;;2.30;;
70985;SDS011;58645;43.068;25.610;2023-06-26T14:58:01;5.18;;;2.90;;
70985;SDS011;58645;43.068;25.610;2023-06-26T15:00:27;4.32;;;2.50;;
70985;SDS011;58645;43.068;25.610;2023-06-26T15:02:53;2.60;;;1.90;;
70985;SDS011;58645;43.068;25.610;2023-06-26T15:05:19;4.15;;;1.77;;
70985;SDS011;58645;43.068;25.610;2023-06-26T15:07:47;3.85;;;2.33;;
70985;SDS011;58645;43.068;25.610;2023-06-26T15:10:13;2.83;;;1.85;;
70985;SDS011;58645;43.068;25.610;2023-06-26T15:12:38;3.22;;;1.63;;
70985;SDS011;58645;43.068;25.610;2023-06-26T15:15:04;2.65;;;1.65;;
70985;SDS011;58645;43.068;25.610;2023-06-26T15:17:32;2.75;;;1.73;;
70985;SDS011;58645;43.068;25.610;2023-06-26T15:19:58;4.45;;;1.85;;
70985;SDS011;58645;43.068;25.610;2023-06-26T15:22:25;2.50;;;1.63;;
70985;SDS011;58645;43.068;25.610;2023-06-26T15:24:52;2.85;;;1.40;;
70985;SDS011;58645;43.068;25.610;2023-06-26T15:27:18;2.20;;;1.45;;
70985;SDS011;58645;43.068;25.610;2023-06-26T15:29:44;3.03;;;1.35;;
70985;SDS011;58645;43.068;25.610;2023-06-26T15:32:09;2.88;;;1.70;;
70985;SDS011;58645;43.068;25.610;2023-06-26T15:34:35;2.42;;;1.50;;
70985;SDS011;58645;43.068;25.610;2023-06-26T15:37:01;4.88;;;1.75;;
70985;SDS011;58645;43.068;25.610;2023-06-26T15:39:27;3.58;;;1.55;;
70985;SDS011;58645;43.068;25.610;2023-06-26T15:41:52;3.03;;;1.75;;